Mercer, Missouri
Current Conditions -  °F | °C
As of 3:53 AM on Sunday 23 Nov 2014 (Local Time) from KLWD Reporting Station
Haze Haze  
Wind Chill: 11°   Ceiling: 200
Heat Index: 11°   Visibility: 2.5mi
Dew Point: 10°   Wind: 8mph
Humidity: 96%   Direction: 160°SSE
Pressure: 29.58"   Gusts: 17mph
Location:  40.51°N, 93.53°W
Report Text: KLWD 230953Z AUTO 16007G15KT 2 1/2SM BR OVC002 11/10 A2958 RMK AO2 SLP018 T01060100
Loading
Personal Weather Stations






























Interactive Weather Map New forecast layout! Learn more

10-Day Weather Forecast

Advertisements
Track Severe Weather on mobile